createdAt,value
2022-10-07T00:03:27.302Z,101644.00
2022-10-07T00:09:29.416Z,101637.00
2022-10-07T00:15:31.494Z,101643.00
2022-10-07T00:21:35.950Z,101638.00
2022-10-07T00:27:38.212Z,101652.00
2022-10-07T00:33:41.203Z,101659.00
2022-10-07T00:39:43.451Z,101655.00
2022-10-07T00:45:45.906Z,101653.00
2022-10-07T00:51:53.348Z,101642.00
2022-10-07T00:58:00.147Z,101636.00
2022-10-07T01:04:02.612Z,101632.00
2022-10-07T01:10:06.327Z,101635.00
2022-10-07T01:16:23.686Z,101634.00
2022-10-07T01:22:50.938Z,101630.00
2022-10-07T01:28:59.048Z,101644.00
2022-10-07T01:35:03.078Z,101639.00
2022-10-07T01:41:18.036Z,101646.00
2022-10-07T01:47:20.585Z,101638.00
2022-10-07T01:53:41.160Z,101642.00
2022-10-07T01:59:48.064Z,101637.00
2022-10-07T02:06:10.246Z,101631.00
2022-10-07T02:12:30.487Z,101633.00
2022-10-07T02:18:36.159Z,101639.00
2022-10-07T02:24:41.043Z,101630.00
2022-10-07T02:30:50.194Z,101632.00
2022-10-07T02:36:58.157Z,101621.00
2022-10-07T02:43:23.522Z,101631.00
2022-10-07T02:49:28.968Z,101630.00
2022-10-07T02:55:32.640Z,101626.00
2022-10-07T03:01:41.555Z,101635.00
2022-10-07T03:07:44.737Z,101644.00
2022-10-07T03:13:47.214Z,101641.00
2022-10-07T03:19:50.916Z,101646.00
2022-10-07T03:25:54.887Z,101631.00
2022-10-07T03:31:58.812Z,101648.00
2022-10-07T03:38:01.471Z,101652.00
2022-10-07T03:44:06.137Z,101648.00
2022-10-07T03:50:09.504Z,101653.00
2022-10-07T03:56:11.933Z,101648.00
2022-10-07T04:02:16.896Z,101656.00
2022-10-07T04:08:19.520Z,101662.00
2022-10-07T04:14:21.784Z,101656.00
2022-10-07T04:20:25.395Z,101668.00
2022-10-07T04:26:28.184Z,101677.00
2022-10-07T04:32:31.910Z,101664.00
2022-10-07T04:38:34.536Z,101672.00
2022-10-07T04:44:39.047Z,101668.00
2022-10-07T04:50:44.185Z,101657.00
2022-10-07T04:56:49.883Z,101607.00
2022-10-07T05:02:54.504Z,101559.00
2022-10-07T05:08:57.932Z,101628.00
2022-10-07T05:15:03.566Z,101590.00
2022-10-07T05:21:16.409Z,101563.00
2022-10-07T05:27:22.989Z,101565.00
2022-10-07T05:33:25.124Z,101682.00
2022-10-07T05:39:27.652Z,101694.00
2022-10-07T05:45:34.916Z,101702.00
2022-10-07T05:51:37.244Z,101705.00
2022-10-07T05:57:41.641Z,101684.00
2022-10-07T06:03:48.582Z,101613.00
2022-10-07T06:10:09.840Z,101659.00
2022-10-07T06:16:13.264Z,101662.00
2022-10-07T06:22:15.496Z,101535.00
2022-10-07T06:28:18.826Z,101548.00
2022-10-07T06:34:21.432Z,101552.00
2022-10-07T06:40:23.863Z,101566.00
2022-10-07T06:46:27.133Z,101569.00
2022-10-07T06:52:30.752Z,101572.00
2022-10-07T06:58:34.047Z,101585.00
2022-10-07T07:04:39.538Z,101586.00
2022-10-07T07:10:44.231Z,101586.00
2022-10-07T07:16:47.708Z,101592.00
2022-10-07T07:22:50.427Z,101604.00
2022-10-07T07:28:58.950Z,101588.00
2022-10-07T07:35:04.758Z,101599.00
2022-10-07T07:41:07.187Z,101589.00
2022-10-07T07:47:09.964Z,101592.00
2022-10-07T07:53:13.490Z,101594.00
2022-10-07T07:59:16.002Z,101588.00
2022-10-07T08:05:23.977Z,101586.00
2022-10-07T08:11:29.715Z,101578.00
2022-10-07T08:17:32.026Z,101569.00
2022-10-07T08:23:35.926Z,101572.00
2022-10-07T08:29:38.310Z,101564.00
2022-10-07T08:35:41.718Z,101577.00
2022-10-07T08:42:13.779Z,101573.00
2022-10-07T08:48:22.857Z,101588.00
2022-10-07T08:54:31.015Z,101644.00
2022-10-07T09:00:54.382Z,101698.00
2022-10-07T09:07:09.239Z,101672.00
2022-10-07T09:13:16.285Z,101714.00
2022-10-07T09:19:38.514Z,101689.00
2022-10-07T09:25:41.683Z,101661.00
2022-10-07T09:31:43.922Z,101651.00
2022-10-07T09:38:03.879Z,101653.00
2022-10-07T09:44:26.823Z,101636.00
2022-10-07T09:50:39.862Z,101655.00
2022-10-07T09:56:54.169Z,101653.00
2022-10-07T10:03:07.953Z,101635.00
2022-10-07T10:09:11.924Z,101609.00
2022-10-07T10:15:36.173Z,101625.00
2022-10-07T10:21:41.963Z,101599.00
2022-10-07T10:27:52.863Z,101590.00
2022-10-07T10:34:21.432Z,101578.00
2022-10-07T10:40:42.919Z,101583.00
2022-10-07T10:47:02.905Z,101573.00
2022-10-07T10:53:24.499Z,101567.00
2022-10-07T10:59:44.969Z,101508.00
2022-10-07T11:05:48.039Z,101388.00
2022-10-07T11:11:51.199Z,101372.00
2022-10-07T11:17:56.440Z,101382.00
2022-10-07T11:24:10.899Z,101410.00
2022-10-07T11:30:28.636Z,101390.00
2022-10-07T11:36:44.612Z,101547.00
2022-10-07T11:42:50.864Z,101376.00
2022-10-07T11:49:11.209Z,101491.00
2022-10-07T11:55:27.260Z,101489.00
2022-10-07T12:01:29.502Z,101486.00
2022-10-07T12:07:37.367Z,101493.00
2022-10-07T12:13:46.362Z,101509.00
2022-10-07T12:20:26.856Z,101484.00
2022-10-07T12:26:30.666Z,101498.00
2022-10-07T12:33:01.278Z,101479.00
2022-10-07T12:39:12.007Z,101471.00
2022-10-07T12:45:15.233Z,101492.00
2022-10-07T12:51:30.023Z,101484.00
2022-10-07T12:57:38.939Z,101490.00
2022-10-07T13:04:09.311Z,101493.00
2022-10-07T13:10:43.104Z,101484.00
2022-10-07T13:16:54.509Z,101475.00
2022-10-07T13:22:57.021Z,101466.00
2022-10-07T13:29:00.935Z,101453.00
2022-10-07T13:35:42.135Z,101430.00
2022-10-07T13:41:47.561Z,101424.00
2022-10-07T13:47:50.167Z,101427.00
2022-10-07T13:53:55.572Z,101437.00
2022-10-07T14:00:00.347Z,101443.00
2022-10-07T14:06:03.400Z,101448.00
2022-10-07T14:12:19.219Z,101443.00
2022-10-07T14:18:21.490Z,101437.00
2022-10-07T14:24:23.677Z,101444.00
2022-10-07T14:30:28.785Z,101441.00
2022-10-07T14:36:31.233Z,101431.00
2022-10-07T14:42:36.410Z,101433.00
2022-10-07T14:48:39.026Z,101439.00
2022-10-07T14:54:41.822Z,101430.00
2022-10-07T15:00:43.943Z,101435.00
2022-10-07T15:06:50.645Z,101432.00
2022-10-07T15:12:54.304Z,101437.00
2022-10-07T15:18:56.530Z,101440.00
2022-10-07T15:24:58.813Z,101432.00
2022-10-07T15:31:09.343Z,101436.00
2022-10-07T15:37:11.689Z,101432.00
2022-10-07T15:43:14.101Z,101427.00
2022-10-07T15:49:19.223Z,101427.00
2022-10-07T15:55:21.396Z,101433.00
2022-10-07T16:01:26.579Z,101430.00
2022-10-07T16:07:29.319Z,101441.00
2022-10-07T16:13:31.883Z,101440.00
2022-10-07T16:19:34.020Z,101442.00
2022-10-07T16:25:36.028Z,101440.00
2022-10-07T16:31:42.771Z,101444.00
2022-10-07T16:37:47.891Z,101450.00
2022-10-07T16:43:59.572Z,101451.00
2022-10-07T16:50:01.778Z,101457.00
2022-10-07T16:56:05.100Z,101447.00
2022-10-07T17:02:08.596Z,101454.00
2022-10-07T17:08:10.915Z,101451.00
2022-10-07T17:14:20.533Z,101448.00
2022-10-07T17:20:23.348Z,101444.00
2022-10-07T17:26:26.652Z,101452.00
2022-10-07T17:32:29.620Z,101442.00
2022-10-07T17:38:34.549Z,101436.00
2022-10-07T17:44:36.684Z,101442.00
2022-10-07T17:50:38.929Z,101443.00
2022-10-07T17:56:42.737Z,101436.00
2022-10-07T18:02:45.018Z,101440.00
2022-10-07T18:08:48.566Z,101440.00
2022-10-07T18:15:09.276Z,101447.00
2022-10-07T18:21:12.111Z,101440.00
2022-10-07T18:27:14.543Z,101440.00
2022-10-07T18:33:16.706Z,101437.00
2022-10-07T18:39:19.008Z,101441.00
2022-10-07T18:45:22.653Z,101435.00
2022-10-07T18:51:28.168Z,101443.00
2022-10-07T18:57:30.128Z,101441.00
2022-10-07T19:03:35.192Z,101445.00
2022-10-07T19:09:37.367Z,101440.00
2022-10-07T19:15:39.465Z,101433.00
2022-10-07T19:21:42.320Z,101432.00
2022-10-07T19:27:44.914Z,101432.00
2022-10-07T19:33:50.213Z,101431.00
2022-10-07T19:39:52.466Z,101439.00
2022-10-07T19:46:00.536Z,101443.00
2022-10-07T19:52:06.080Z,101435.00
2022-10-07T19:58:08.319Z,101439.00
2022-10-07T20:04:14.130Z,101442.00
2022-10-07T20:10:16.652Z,101442.00
2022-10-07T20:16:21.099Z,101429.00
2022-10-07T20:22:23.326Z,101440.00
2022-10-07T20:28:25.862Z,101437.00
2022-10-07T20:34:28.154Z,101444.00
2022-10-07T20:40:49.011Z,101437.00
2022-10-07T20:46:52.164Z,101432.00
2022-10-07T20:52:54.660Z,101432.00
2022-10-07T20:58:57.097Z,101433.00
2022-10-07T21:05:00.141Z,101428.00
2022-10-07T21:11:04.038Z,101423.00
2022-10-07T21:17:06.932Z,101424.00
2022-10-07T21:23:09.151Z,101417.00
2022-10-07T21:29:12.097Z,101416.00
2022-10-07T21:35:14.628Z,101412.00
2022-10-07T21:41:23.230Z,101409.00
2022-10-07T21:47:25.836Z,101399.00
2022-10-07T21:53:28.209Z,101382.00
2022-10-07T21:59:33.815Z,101381.00
2022-10-07T22:05:36.219Z,101385.00
2022-10-07T22:11:38.607Z,101382.00
2022-10-07T22:17:40.841Z,101374.00
2022-10-07T22:23:43.508Z,101355.00
2022-10-07T22:29:45.635Z,101367.00
2022-10-07T22:35:47.912Z,101360.00
2022-10-07T22:41:49.917Z,101364.00
2022-10-07T22:47:52.281Z,101362.00
2022-10-07T22:53:56.199Z,101358.00
2022-10-07T23:00:00.563Z,101356.00
2022-10-07T23:06:04.919Z,101356.00
2022-10-07T23:12:07.099Z,101360.00
2022-10-07T23:18:09.246Z,101358.00
2022-10-07T23:24:11.616Z,101358.00
2022-10-07T23:30:13.953Z,101359.00
2022-10-07T23:36:16.968Z,101348.00
2022-10-07T23:42:19.391Z,101345.00
2022-10-07T23:48:21.753Z,101347.00
2022-10-07T23:54:23.949Z,101346.00
